Time;durP1;ratioP1;P1;durP2;ratioP2;P2;SDS_P1;SDS_P2;PMS_P1;PMS_P2;Temp;Humidity;BMP_temperature;BMP_pressure;BME280_temperature;BME280_humidity;BME280_pressure;Samples;Min_cycle;Max_cycle;Signal;HPM_P1;HPM_P2
2022/06/12 00:01:11;;;;;;;5.97;4.22;;;;;;;16.07;71.66;96895.81;5033356;28;20044;-80
2022/06/12 00:03:39;;;;;;;4.65;3.92;;;;;;;16.02;71.95;96898.75;5033083;28;20053;-80
2022/06/12 00:06:06;;;;;;;5.07;3.88;;;;;;;16.05;72.05;96898.91;5032682;28;20038;-80
2022/06/12 00:08:37;;;;;;;6.15;3.65;;;;;;;16.23;72.87;96891.25;5033177;28;20049;-80
2022/06/12 00:11:06;;;;;;;5.18;3.88;;;;;;;16.31;72.01;96895.84;5032612;28;20049;-80
2022/06/12 00:13:35;;;;;;;4.40;3.42;;;;;;;16.38;72.01;96889.78;5032855;28;20046;-80
2022/06/12 00:16:03;;;;;;;5.10;4.00;;;;;;;16.38;72.71;96896.09;5032634;28;20057;-78
2022/06/12 00:18:29;;;;;;;5.38;3.60;;;;;;;16.40;72.80;96896.56;5032904;28;20050;-79
2022/06/12 00:23:55;;;;;;;5.65;3.90;;;;;;;16.34;71.61;96892.44;5078605;27;20399;-77
2022/06/12 00:26:24;;;;;;;4.25;3.70;;;;;;;16.24;70.81;96892.88;5067522;28;20499;-80
2022/06/12 00:28:56;;;;;;;6.93;4.10;;;;;;;16.22;70.69;96903.38;5068481;28;20052;-80
2022/06/12 00:31:23;;;;;;;5.10;3.60;;;;;;;16.32;71.76;96891.97;5068105;28;20572;-80
2022/06/12 00:33:49;;;;;;;4.47;3.67;;;;;;;16.24;70.80;96890.13;5068339;28;20045;-81
2022/06/12 00:36:16;;;;;;;5.22;3.70;;;;;;;16.32;71.76;96891.97;5067442;28;20041;-80
2022/06/12 00:38:42;;;;;;;4.20;3.47;;;;;;;16.24;70.02;96892.88;5067779;28;20049;-81
2022/06/12 00:41:10;;;;;;;4.32;3.55;;;;;;;16.31;71.36;96884.06;5067164;28;20048;-79
2022/06/12 00:43:38;;;;;;;4.45;3.45;;;;;;;16.27;69.74;96889.44;5068072;28;20051;-79
2022/06/12 00:46:05;;;;;;;3.55;3.15;;;;;;;16.28;70.47;96890.22;5067707;28;20407;-80
2022/06/12 00:48:35;;;;;;;5.25;3.20;;;;;;;16.24;70.67;96886.59;5075844;28;20045;-80
2022/06/12 00:51:08;;;;;;;6.50;3.80;;;;;;;16.24;71.61;96884.63;5070494;28;20045;-81
2022/06/12 00:53:39;;;;;;;5.05;3.75;;;;;;;16.14;69.45;96885.06;5063357;28;20044;-80
2022/06/12 00:56:12;;;;;;;4.82;3.38;;;;;;;16.18;69.85;96877.72;5069242;28;20045;-80
2022/06/12 00:58:44;;;;;;;4.95;3.58;;;;;;;16.20;70.27;96875.47;5069461;28;20064;-80
2022/06/12 01:01:15;;;;;;;5.10;3.55;;;;;;;16.12;70.00;96876.34;5068095;28;20060;-79
2022/06/12 01:09:11;;;;;;;5.03;4.15;;;;;;;16.10;69.37;96879.44;5061433;28;20684;-80
2022/06/12 01:11:42;;;;;;;3.95;3.50;;;;;;;16.04;69.41;96880.81;5068039;28;20064;-81
2022/06/12 01:14:13;;;;;;;5.28;3.88;;;;;;;16.03;69.81;96883.91;5066765;28;20045;-80
2022/06/12 01:16:45;;;;;;;5.35;3.63;;;;;;;15.97;69.51;96879.75;5066576;28;20044;-81
2022/06/12 01:19:15;;;;;;;6.05;4.00;;;;;;;15.92;70.30;96878.03;5066117;28;20113;-80
2022/06/12 01:22:07;;;;;;;4.80;3.17;;;;;;;15.87;69.85;96881.81;5067063;28;20088;-81
2022/06/12 01:25:06;;;;;;;6.10;3.70;;;;;;;15.76;70.15;96877.88;5067862;28;20037;-82
2022/06/12 01:28:12;;;;;;;6.18;3.95;;;;;;;15.72;71.58;96876.97;5060074;28;20048;-81
2022/06/12 01:30:45;;;;;;;5.93;3.55;;;;;;;15.67;72.73;96874.44;5067618;28;20412;-80
2022/06/12 01:33:20;;;;;;;5.00;4.00;;;;;;;15.65;72.34;96876.69;5064925;28;20049;-81
2022/06/12 01:35:52;;;;;;;3.95;3.38;;;;;;;15.65;72.65;96874.75;5053636;28;20916;-80
2022/06/12 01:38:25;;;;;;;4.32;3.70;;;;;;;15.62;73.18;96874.59;5053335;28;20053;-80
2022/06/12 01:40:58;;;;;;;5.60;3.67;;;;;;;15.60;73.11;96871.38;5053904;28;20713;-79
2022/06/12 01:43:36;;;;;;;5.22;3.97;;;;;;;15.59;74.01;96875.28;5053455;28;20295;-80
2022/06/12 01:46:15;;;;;;;5.72;3.90;;;;;;;15.51;73.04;96876.16;5053151;28;20060;-80
2022/06/12 01:48:45;;;;;;;6.28;3.45;;;;;;;15.40;73.19;96879.31;5055307;28;20068;-81
2022/06/12 01:51:21;;;;;;;5.97;4.05;;;;;;;15.33;73.68;96872.75;5053749;28;20622;-81
2022/06/12 01:53:56;;;;;;;5.63;4.28;;;;;;;15.20;74.35;96868.38;5054142;28;20136;-81
2022/06/12 01:56:27;;;;;;;5.53;3.70;;;;;;;15.25;74.77;96871.72;5053798;28;20044;-81
2022/06/12 01:59:02;;;;;;;4.47;4.00;;;;;;;15.33;76.57;96862.59;5054568;28;20049;-80
2022/06/12 02:01:36;;;;;;;6.63;3.72;;;;;;;15.29;76.14;96864.38;5053748;28;20040;-81
2022/06/12 02:04:12;;;;;;;6.55;4.45;;;;;;;15.14;74.89;96862.28;5051902;28;20052;-80
2022/06/12 02:06:43;;;;;;;8.98;4.32;;;;;;;14.98;74.80;96861.25;5054161;28;20049;-80
2022/06/12 02:09:15;;;;;;;5.88;3.80;;;;;;;15.07;75.05;96857.31;5049145;28;20044;-80
2022/06/12 02:14:37;;;;;;;5.45;3.60;;;;;;;14.84;74.27;96862.31;5053237;28;20052;-81
2022/06/12 02:17:09;;;;;;;5.07;3.95;;;;;;;14.88;74.29;96867.97;5053198;28;20060;-80
2022/06/12 02:19:40;;;;;;;6.20;3.10;;;;;;;15.01;74.78;96874.31;5053759;28;20048;-81
2022/06/12 02:22:10;;;;;;;5.82;4.20;;;;;;;15.04;75.39;96866.22;5053396;28;20057;-80
2022/06/12 02:24:43;;;;;;;4.65;3.53;;;;;;;15.07;75.53;96871.03;5036540;28;20044;-80
2022/06/12 02:27:13;;;;;;;3.92;3.20;;;;;;;15.02;74.88;96873.16;5053361;28;20041;-81
2022/06/12 02:29:43;;;;;;;5.35;3.55;;;;;;;14.99;74.57;96868.38;5053846;28;20048;-81
2022/06/12 02:32:16;;;;;;;4.90;3.47;;;;;;;14.91;75.11;96869.22;5053416;28;20048;-80
2022/06/12 02:34:49;;;;;;;3.42;3.05;;;;;;;14.90;75.39;96876.66;5053952;28;20136;-81
2022/06/12 02:37:25;;;;;;;4.13;3.15;;;;;;;14.86;75.19;96868.28;5053248;28;20052;-81
2022/06/12 02:39:58;;;;;;;5.40;3.75;;;;;;;14.83;75.69;96859.94;5053497;28;20072;-81
2022/06/12 02:42:27;;;;;;;5.50;3.78;;;;;;;14.79;74.92;96864.47;5054520;28;20045;-80
2022/06/12 02:44:59;;;;;;;4.38;3.33;;;;;;;14.86;76.64;96861.97;5054652;28;20052;-80
2022/06/12 02:47:30;;;;;;;4.03;3.50;;;;;;;14.87;76.19;96856.16;5044161;28;20049;-81
2022/06/12 02:49:59;;;;;;;5.63;3.65;;;;;;;14.87;76.34;96858.91;5037068;28;20922;-81
2022/06/12 02:52:33;;;;;;;4.65;3.55;;;;;;;14.86;76.46;96856.50;5053578;28;20045;-81
2022/06/12 02:55:08;;;;;;;4.97;3.55;;;;;;;14.75;75.57;96856.09;5053732;28;20044;-80
2022/06/12 02:57:42;;;;;;;7.55;3.75;;;;;;;14.74;75.27;96854.50;5053641;28;20045;-80
2022/06/12 03:00:13;;;;;;;;;;;;;;;14.78;75.52;96858.19;5053301;28;20056;-80
2022/06/12 03:02:46;;;;;;;4.63;3.40;;;;;;;14.78;76.11;96858.19;5052443;28;20263;-80
2022/06/12 03:05:20;;;;;;;5.05;3.20;;;;;;;14.77;75.55;96861.22;5052003;28;20073;-80
2022/06/12 03:07:47;;;;;;;4.57;3.50;;;;;;;14.80;76.36;96855.91;5051325;28;20079;-80
2022/06/12 03:10:18;;;;;;;5.45;3.45;;;;;;;14.88;76.43;96865.22;5052088;28;20037;-80
2022/06/12 03:12:45;;;;;;;4.03;3.30;;;;;;;14.84;75.41;96862.31;5052914;28;20041;-80
2022/06/12 03:15:30;;;;;;;3.97;3.30;;;;;;;14.79;74.95;96861.72;5052039;28;20056;-80
2022/06/12 03:18:00;;;;;;;5.00;3.80;;;;;;;14.72;75.17;96861.44;5052441;28;20407;-80
2022/06/12 03:20:33;;;;;;;4.25;3.53;;;;;;;14.71;76.03;96866.09;5051771;28;20043;-80
2022/06/12 03:23:05;;;;;;;;;;;;;;;14.72;76.04;96873.22;5034395;28;20127;-81
2022/06/12 03:25:38;;;;;;;4.03;3.25;;;;;;;14.67;76.83;96878.91;5051737;28;19921;-80
2022/06/12 03:28:12;;;;;;;5.70;3.90;;;;;;;14.70;76.60;96877.41;5051665;28;20045;-80
2022/06/12 03:30:45;;;;;;;4.65;3.67;;;;;;;14.61;76.28;96880.19;5052256;28;20049;-80
2022/06/12 03:33:19;;;;;;;4.40;3.63;;;;;;;14.58;77.00;96875.41;5051586;28;20055;-81
2022/06/12 03:35:53;;;;;;;4.97;3.78;;;;;;;14.58;77.48;96878.94;5052004;28;20718;-81
2022/06/12 03:38:25;;;;;;;5.55;3.42;;;;;;;14.60;77.20;96886.81;5051342;28;20449;-80
2022/06/12 03:40:58;;;;;;;5.57;3.40;;;;;;;14.55;76.60;96884.25;5052264;28;20044;-80
2022/06/12 03:43:34;;;;;;;5.22;3.53;;;;;;;14.55;76.71;96892.47;5051851;28;20534;-80
2022/06/12 03:46:09;;;;;;;6.35;3.90;;;;;;;14.54;76.67;96885.41;5052931;28;20520;-80
2022/06/12 03:48:42;;;;;;;5.25;3.63;;;;;;;14.52;76.23;96887.69;5036100;28;20041;-80
2022/06/12 03:51:16;;;;;;;4.20;3.20;;;;;;;14.53;76.70;96889.28;5052346;28;20045;-81
2022/06/12 03:53:48;;;;;;;4.15;3.40;;;;;;;14.52;76.25;96893.16;5052686;28;20053;-81
2022/06/12 03:59:12;;;;;;;4.70;3.60;;;;;;;14.63;76.73;96894.38;5053430;28;20071;-81
2022/06/12 04:01:39;;;;;;;;;;;;;;;14.64;76.51;96901.47;5054581;28;20072;-82
2022/06/12 04:04:09;;;;;;;4.82;3.20;;;;;;;14.65;77.12;96897.59;5053550;28;19927;-80
2022/06/12 04:06:40;;;;;;;4.30;3.42;;;;;;;14.64;77.54;96896.00;5054451;28;20488;-81
2022/06/12 04:09:13;;;;;;;6.82;3.30;;;;;;;14.65;77.54;96900.34;5052705;28;20051;-81
2022/06/12 04:11:42;;;;;;;3.33;3.00;;;;;;;14.69;78.20;96904.03;5035530;28;20098;-80
2022/06/12 04:14:15;;;;;;;4.20;3.50;;;;;;;14.69;78.35;96904.03;5051870;28;20056;-80
2022/06/12 04:16:46;;;;;;;4.45;3.55;;;;;;;14.76;78.28;96904.28;5052557;28;20068;-81
2022/06/12 04:19:17;;;;;;;3.67;3.15;;;;;;;14.82;78.23;96902.97;5052086;28;20048;-80
2022/06/12 04:21:47;;;;;;;4.35;3.40;;;;;;;14.83;76.30;96903.78;5052046;28;20057;-80
2022/06/12 04:24:17;;;;;;;4.13;3.13;;;;;;;14.86;76.21;96900.38;5051349;28;20049;-79
2022/06/12 04:26:49;;;;;;;5.70;3.40;;;;;;;14.92;75.96;96900.97;5052184;28;20052;-80
2022/06/12 04:29:22;;;;;;;5.10;3.60;;;;;;;14.94;74.39;96905.00;5051638;28;20041;-80
2022/06/12 04:31:52;;;;;;;5.38;3.28;;;;;;;14.96;73.77;96901.94;5052006;28;20512;-81
2022/06/12 04:34:22;;;;;;;4.82;3.50;;;;;;;15.02;75.30;96906.06;5051667;28;20045;-80
2022/06/12 04:36:52;;;;;;;5.13;3.40;;;;;;;15.07;74.77;96897.66;5053644;28;20049;-80
2022/06/12 04:39:22;;;;;;;4.07;3.22;;;;;;;15.09;74.31;96898.13;5052000;28;20041;-79
2022/06/12 04:41:49;;;;;;;5.07;3.40;;;;;;;15.13;74.90;96897.13;5052335;28;20045;-80
2022/06/12 04:44:15;;;;;;;3.63;2.83;;;;;;;15.17;74.80;96897.25;5051071;28;20546;-79
2022/06/12 04:46:44;;;;;;;3.90;3.03;;;;;;;15.23;75.16;96901.41;5050914;28;20738;-80
2022/06/12 04:49:14;;;;;;;3.97;3.45;;;;;;;15.29;74.78;96893.78;5050783;28;20041;-80
2022/06/12 04:51:43;;;;;;;4.82;3.10;;;;;;;15.32;74.71;96890.38;5050796;28;20080;-80
2022/06/12 04:54:10;;;;;;;4.22;3.22;;;;;;;15.38;75.26;96898.06;5050433;28;20065;-80
2022/06/12 04:56:36;;;;;;;3.60;3.20;;;;;;;15.44;74.12;96895.91;5050696;28;20040;-82
2022/06/12 04:59:04;;;;;;;3.85;3.10;;;;;;;15.50;73.63;96891.00;5050452;28;20052;-80
2022/06/12 05:01:32;;;;;;;4.22;3.20;;;;;;;15.56;74.19;96886.94;5050763;28;20045;-80
2022/06/12 05:03:59;;;;;;;3.55;3.00;;;;;;;15.60;74.35;96888.66;5050565;28;20045;-80
2022/06/12 05:06:27;;;;;;;4.30;3.20;;;;;;;15.53;72.11;96882.91;5050364;28;20036;-80
2022/06/12 05:08:55;;;;;;;5.30;3.40;;;;;;;15.53;70.96;96882.91;5051709;28;20045;-80
2022/06/12 05:11:24;;;;;;;4.45;3.30;;;;;;;15.48;71.44;96882.31;5054397;28;20110;-80
2022/06/12 05:13:51;;;;;;;4.00;3.33;;;;;;;15.70;71.57;96887.47;5054848;28;20045;-80
2022/06/12 05:16:26;;;;;;;4.90;3.00;;;;;;;15.78;71.99;96889.34;5052609;28;20052;-80
2022/06/12 05:18:52;;;;;;;3.47;2.90;;;;;;;15.84;72.39;96882.47;5044560;28;20052;-80
2022/06/12 05:21:19;;;;;;;5.97;3.15;;;;;;;15.85;72.30;96884.09;5052996;28;20052;-80
2022/06/12 05:23:45;;;;;;;5.07;3.03;;;;;;;15.90;70.88;96886.63;5054268;28;20045;-80
2022/06/12 05:26:16;;;;;;;5.95;3.35;;;;;;;16.00;70.94;96879.09;5036220;28;20052;-81
2022/06/12 05:28:42;;;;;;;5.50;2.90;;;;;;;16.14;71.04;96874.88;5054377;28;20523;-81
2022/06/12 05:31:09;;;;;;;4.70;3.10;;;;;;;16.23;71.33;96877.50;5054028;28;20045;-81
2022/06/12 05:33:36;;;;;;;4.25;3.13;;;;;;;16.04;70.09;96885.50;5054999;28;20045;-81
2022/06/12 05:36:03;;;;;;;4.70;2.88;;;;;;;16.17;70.31;96884.38;5053766;28;20438;-81
2022/06/12 05:38:29;;;;;;;3.85;2.83;;;;;;;16.34;70.82;96884.19;5054089;28;20049;-80
2022/06/12 05:40:56;;;;;;;4.05;2.97;;;;;;;16.35;70.47;96885.78;5053803;28;20053;-81
2022/06/12 05:43:23;;;;;;;3.40;2.80;;;;;;;16.44;71.64;96883.75;5053601;28;20067;-81
2022/06/12 05:45:50;;;;;;;3.40;3.00;;;;;;;16.49;70.93;96884.63;5053483;28;20071;-80
2022/06/12 05:48:18;;;;;;;3.20;2.90;;;;;;;16.64;71.54;96878.44;5053894;28;20491;-81
2022/06/12 05:50:50;;;;;;;4.65;3.03;;;;;;;16.64;69.43;96881.19;5055044;28;20048;-81
2022/06/12 05:53:17;;;;;;;3.92;2.78;;;;;;;16.76;69.61;96889.50;5053605;28;20129;-80
2022/06/12 05:55:45;;;;;;;4.75;2.70;;;;;;;16.84;70.39;96883.06;5053782;28;20049;-80
2022/06/12 05:58:12;;;;;;;5.95;3.05;;;;;;;16.82;68.62;96888.09;5054264;28;20091;-81
2022/06/12 06:00:40;;;;;;;3.33;2.78;;;;;;;16.87;68.71;96884.31;5054566;28;20045;-81
2022/06/12 06:03:06;;;;;;;5.00;3.53;;;;;;;17.01;69.22;96883.94;5053955;28;20419;-80
2022/06/12 06:05:35;;;;;;;3.58;2.80;;;;;;;17.14;69.72;96880.03;5053714;28;20051;-81
2022/06/12 06:08:02;;;;;;;4.95;3.25;;;;;;;17.25;69.25;96883.91;5053519;28;20704;-80
2022/06/12 06:10:29;;;;;;;4.07;3.00;;;;;;;17.26;68.53;96885.50;5054300;28;20048;-81
2022/06/12 06:12:56;;;;;;;4.68;2.70;;;;;;;17.30;68.80;96891.13;5054214;28;20045;-81
2022/06/12 06:15:24;;;;;;;4.47;2.92;;;;;;;17.25;68.99;96883.91;5054017;28;20036;-80
2022/06/12 06:17:52;;;;;;;4.47;3.10;;;;;;;17.34;68.51;96890.06;5055293;28;20045;-81
2022/06/12 06:20:22;;;;;;;4.30;2.80;;;;;;;17.40;68.65;96890.63;5053651;28;20045;-80
2022/06/12 06:22:49;;;;;;;4.82;3.13;;;;;;;17.57;68.87;96892.28;5052918;28;20094;-81
2022/06/12 06:25:16;;;;;;;4.85;3.00;;;;;;;17.61;68.03;96891.22;5052625;28;20696;-80
2022/06/12 06:27:43;;;;;;;4.63;2.90;;;;;;;17.63;67.98;96888.13;5054358;28;20041;-81
2022/06/12 06:30:11;;;;;;;4.90;3.08;;;;;;;17.58;68.32;96891.13;5054534;28;20056;-81
2022/06/12 06:32:37;;;;;;;3.65;3.17;;;;;;;17.84;69.06;96888.75;5054249;28;20645;-81
2022/06/12 06:35:07;;;;;;;5.70;3.00;;;;;;;17.91;69.41;96883.44;5053566;28;20266;-82
2022/06/12 06:37:34;;;;;;;3.92;2.95;;;;;;;18.09;68.85;96888.63;5053193;28;20044;-81
2022/06/12 06:40:01;;;;;;;3.92;3.08;;;;;;;18.18;68.66;96890.06;5053477;28;20055;-81
2022/06/12 06:42:28;;;;;;;4.60;2.75;;;;;;;18.28;67.38;96891.50;5053349;28;20045;-80
2022/06/12 06:47:39;;;;;;;4.60;3.10;;;;;;;18.34;66.74;96887.31;5053163;28;20060;-81
2022/06/12 06:50:10;;;;;;;5.45;2.60;;;;;;;18.55;67.07;96889.00;5052585;28;20102;-80
2022/06/12 06:52:37;;;;;;;2.80;2.50;;;;;;;18.75;66.78;96893.47;5054844;28;20049;-81
2022/06/12 06:55:05;;;;;;;5.90;3.00;;;;;;;18.81;65.55;96886.50;5054137;28;20052;-81
2022/06/12 06:57:31;;;;;;;3.65;2.63;;;;;;;18.92;65.59;96887.56;5054016;28;20511;-81
2022/06/12 06:59:58;;;;;;;5.65;2.65;;;;;;;19.06;66.32;96891.81;5054084;28;20059;-80
2022/06/12 07:02:24;;;;;;;4.75;2.38;;;;;;;19.13;67.24;96889.19;5054111;28;20045;-81
2022/06/12 07:04:51;;;;;;;3.92;3.15;;;;;;;19.09;64.82;96893.84;5055940;28;20044;-81
2022/06/12 07:07:18;;;;;;;4.78;2.60;;;;;;;19.30;64.63;96888.78;5055437;28;20056;-81
2022/06/12 07:09:45;;;;;;;3.53;2.60;;;;;;;19.43;65.57;96883.94;5054466;28;20057;-82
2022/06/12 07:12:11;;;;;;;3.47;2.50;;;;;;;19.58;65.13;96885.03;5057139;28;20052;-81
2022/06/12 07:14:38;;;;;;;3.72;2.50;;;;;;;19.69;65.75;96886.88;5046067;28;20463;-81
2022/06/12 07:17:05;;;;;;;2.50;2.20;;;;;;;19.81;64.86;96889.47;5055504;28;20052;-81
2022/06/12 07:19:32;;;;;;;3.67;2.75;;;;;;;19.86;63.32;96891.16;5057225;28;20048;-81
2022/06/12 07:22:00;;;;;;;3.03;2.53;;;;;;;19.97;63.41;96894.13;5056407;28;20077;-82
2022/06/12 07:24:29;;;;;;;4.32;2.70;;;;;;;19.99;62.29;96889.84;5055012;28;20052;-81
2022/06/12 07:26:55;;;;;;;3.70;2.65;;;;;;;20.05;62.25;96882.03;5058109;28;20045;-81
2022/06/12 07:29:22;;;;;;;3.63;3.00;;;;;;;20.28;60.99;96893.09;5061305;28;20124;-82
2022/06/12 07:31:49;;;;;;;3.78;2.53;;;;;;;20.39;61.71;96891.31;5046670;28;20131;-82
2022/06/12 07:34:16;;;;;;;3.97;2.78;;;;;;;20.46;61.53;96894.22;5061161;28;20400;-82
2022/06/12 07:36:48;;;;;;;3.55;2.70;;;;;;;20.55;61.56;96889.25;5061802;28;20060;-83
2022/06/12 07:39:19;;;;;;;4.18;2.60;;;;;;;20.56;61.41;96890.84;5061103;28;20048;-81
2022/06/12 07:41:49;;;;;;;3.83;3.00;;;;;;;20.68;63.88;96891.84;5059584;28;20060;-83
2022/06/12 07:44:17;;;;;;;4.82;3.28;;;;;;;20.72;63.85;96892.69;5059763;28;20057;-81
2022/06/12 07:46:44;;;;;;;4.90;2.85;;;;;;;20.83;62.95;96893.69;5049417;28;20101;-82
2022/06/12 07:49:10;;;;;;;3.20;2.53;;;;;;;21.01;63.09;96888.41;5060269;28;20103;-81
2022/06/12 07:51:40;;;;;;;4.55;2.63;;;;;;;21.21;67.41;96889.09;5060780;28;20052;-83
2022/06/12 07:54:06;;;;;;;3.88;2.60;;;;;;;21.30;63.65;96892.41;5062161;28;20071;-81
2022/06/12 07:56:33;;;;;;;4.35;2.50;;;;;;;21.32;59.95;96890.06;5060949;28;20045;-81
2022/06/12 07:59:01;;;;;;;3.20;2.58;;;;;;;21.33;62.08;96884.13;5049294;28;20048;-81
2022/06/12 08:01:29;;;;;;;3.95;2.60;;;;;;;21.59;59.01;96874.16;5051972;28;20087;-84
2022/06/12 08:03:56;;;;;;;3.63;2.65;;;;;;;21.72;58.61;96877.50;5043314;28;20037;-83
2022/06/12 08:06:25;;;;;;;3.78;2.65;;;;;;;21.77;58.71;96872.44;5059712;28;20041;-82
2022/06/12 08:08:52;;;;;;;3.20;2.60;;;;;;;21.82;60.78;96871.25;5057402;28;20545;-81
2022/06/12 08:11:21;;;;;;;4.72;2.78;;;;;;;22.30;61.08;96874.19;5059204;28;20052;-82
2022/06/12 08:13:47;;;;;;;4.20;2.60;;;;;;;23.18;60.85;96871.34;5042648;28;20573;-82
2022/06/12 08:16:15;;;;;;;2.75;2.20;;;;;;;24.13;53.57;96872.16;5047878;28;20467;-81
2022/06/12 08:18:45;;;;;;;3.55;2.50;;;;;;;24.64;53.03;96873.84;5060748;28;20045;-82
2022/06/12 08:21:14;;;;;;;3.25;2.40;;;;;;;24.77;54.33;96870.63;5050368;28;20060;-81
2022/06/12 08:23:46;;;;;;;3.45;2.63;;;;;;;25.06;55.08;96866.66;5058458;28;20056;-81
2022/06/12 08:26:18;;;;;;;3.92;2.40;;;;;;;25.43;56.67;96873.75;5059831;28;20599;-81
2022/06/12 08:28:49;;;;;;;4.57;2.58;;;;;;;25.54;56.75;96873.72;5051250;28;20045;-82
2022/06/12 08:31:20;;;;;;;2.58;1.95;;;;;;;25.88;50.49;96882.34;5061101;28;20045;-83
2022/06/12 08:33:51;;;;;;;3.70;2.25;;;;;;;25.91;53.10;96878.78;5061061;28;20104;-82
2022/06/12 08:36:21;;;;;;;3.38;2.13;;;;;;;25.69;48.15;96881.63;5062372;28;20053;-82
2022/06/12 08:38:48;;;;;;;3.90;2.30;;;;;;;25.59;50.13;96876.88;5058526;28;20052;-81
2022/06/12 08:41:23;;;;;;;2.95;1.88;;;;;;;25.76;49.95;96876.03;5098814;22;20049;-81
2022/06/12 08:43:59;;;;;;;4.70;2.25;;;;;;;25.81;45.30;96874.03;5044324;28;20500;-81
2022/06/12 08:46:33;;;;;;;2.38;1.75;;;;;;;25.79;46.72;96873.63;5049153;28;20053;-82
2022/06/12 08:49:05;;;;;;;2.88;1.85;;;;;;;25.72;45.53;96875.22;5044739;28;20132;-82
2022/06/12 08:51:38;;;;;;;4.07;2.00;;;;;;;25.74;43.08;96870.06;5048866;28;20042;-82
2022/06/12 08:54:11;;;;;;;3.33;2.08;;;;;;;25.68;43.49;96874.44;5048230;28;20280;-81
2022/06/12 08:56:45;;;;;;;3.28;1.85;;;;;;;25.59;43.96;96871.31;5049068;28;20075;-82
2022/06/12 08:59:17;;;;;;;3.00;1.80;;;;;;;25.74;47.02;96872.88;5050586;28;20049;-82
2022/06/12 09:01:45;;;;;;;3.80;1.80;;;;;;;25.61;44.30;96868.88;5047727;28;20408;-81
2022/06/12 09:04:14;;;;;;;4.07;1.70;;;;;;;25.66;39.51;96868.47;5043244;28;20061;-81
2022/06/12 09:06:48;;;;;;;4.85;1.80;;;;;;;25.74;42.78;96864.50;5045792;28;20057;-82
2022/06/12 09:09:23;;;;;;;3.08;1.58;;;;;;;25.94;45.03;96852.81;5045153;28;20041;-80
2022/06/12 09:11:53;;;;;;;5.53;1.70;;;;;;;25.94;47.33;96850.81;5046023;28;20052;-82
2022/06/12 09:14:41;;;;;;;3.60;2.17;;;;;;;25.91;42.72;96854.44;5044330;28;20424;-80
2022/06/12 09:17:20;;;;;;;2.05;1.60;;;;;;;25.94;40.66;96848.03;5045721;28;20049;-82
2022/06/12 09:20:11;;;;;;;2.08;1.60;;;;;;;26.14;44.43;96845.53;5048243;28;20112;-81
2022/06/12 09:22:44;;;;;;;2.60;1.65;;;;;;;26.17;38.14;96855.91;5044555;28;20047;-79
2022/06/12 09:25:19;;;;;;;2.25;1.40;;;;;;;26.15;38.16;96847.13;5048116;28;20046;-81
2022/06/12 09:27:55;;;;;;;2.67;1.52;;;;;;;25.73;34.89;96851.69;5048468;28;20053;-81
2022/06/12 09:30:31;;;;;;;5.22;1.98;;;;;;;25.36;36.73;96845.88;5042236;28;20064;-83
2022/06/12 09:33:08;;;;;;;2.90;1.63;;;;;;;25.72;36.97;96847.31;5043510;28;20049;-81
2022/06/12 09:35:46;;;;;;;2.65;1.70;;;;;;;26.01;44.22;96844.44;5042703;28;20037;-82
2022/06/12 09:38:29;;;;;;;3.28;1.73;;;;;;;26.26;42.69;96839.50;5049364;28;20056;-82
2022/06/12 09:41:10;;;;;;;;;;;;;;;26.21;39.45;96842.72;5047191;28;20053;-82
2022/06/12 09:43:42;;;;;;;3.03;1.50;;;;;;;26.21;42.83;96834.34;5038590;28;19925;-82
2022/06/12 09:46:25;;;;;;;3.75;1.60;;;;;;;26.50;39.03;96834.16;5046228;28;20049;-81
2022/06/12 09:49:10;;;;;;;3.50;1.55;;;;;;;26.48;40.25;96833.78;5046804;28;20050;-81
2022/06/12 09:51:52;;;;;;;2.28;1.35;;;;;;;26.61;38.32;96834.84;5023548;28;20053;-82
2022/06/12 09:54:30;;;;;;;3.53;1.70;;;;;;;26.53;35.75;96822.16;5013291;28;20068;-83
2022/06/12 09:57:04;;;;;;;2.75;1.80;;;;;;;26.51;40.68;96824.56;5049510;28;20045;-82
2022/06/12 10:02:01;;;;;;;3.13;1.50;;;;;;;26.39;36.08;96828.63;5069018;23;20061;-82
2022/06/12 10:04:38;;;;;;;4.93;1.52;;;;;;;26.48;35.37;96811.44;5052973;22;20041;-82
2022/06/12 10:07:11;;;;;;;2.20;1.60;;;;;;;26.45;34.43;96815.03;5053230;28;20045;-83
2022/06/12 10:09:42;;;;;;;4.57;1.52;;;;;;;26.35;35.73;96822.25;5025234;28;20517;-82
2022/06/12 10:12:16;;;;;;;3.97;1.50;;;;;;;26.19;39.81;96814.41;5030302;28;20052;-81
2022/06/12 10:14:46;;;;;;;3.28;1.70;;;;;;;26.14;38.16;96817.63;5020041;28;20054;-81
2022/06/12 10:17:16;;;;;;;3.72;1.40;;;;;;;26.27;40.29;96802.00;5016772;28;20558;-81
2022/06/12 10:19:48;;;;;;;4.90;1.52;;;;;;;26.29;35.98;96807.94;5018325;28;20061;-81
2022/06/12 10:22:20;;;;;;;3.28;1.30;;;;;;;25.97;36.34;96804.59;5020715;28;20054;-81
2022/06/12 10:24:46;;;;;;;1.45;1.15;;;;;;;26.18;38.83;96798.88;5022680;28;20132;-81
2022/06/12 10:27:17;;;;;;;2.22;1.40;;;;;;;26.50;38.11;96797.84;5019263;28;20042;-81
2022/06/12 10:29:47;;;;;;;2.03;1.17;;;;;;;26.48;38.01;96797.47;5021853;28;20103;-81
2022/06/12 10:32:16;;;;;;;2.92;1.38;;;;;;;26.29;36.31;96791.19;5022185;28;20104;-82
2022/06/12 10:34:44;;;;;;;1.90;1.25;;;;;;;26.39;39.42;96797.13;5024512;28;20493;-82
2022/06/12 10:37:16;;;;;;;2.78;1.58;;;;;;;26.54;33.40;96798.63;5021931;28;20046;-81
2022/06/12 10:39:44;;;;;;;3.67;1.10;;;;;;;26.28;36.89;96788.81;5033649;28;20045;-81
2022/06/12 10:42:32;;;;;;;3.17;1.23;;;;;;;26.21;34.14;96789.69;5039971;28;20448;-82
2022/06/12 10:45:00;;;;;;;2.47;1.33;;;;;;;26.27;35.55;96782.44;5042111;28;20488;-81
2022/06/12 10:47:29;;;;;;;3.38;1.20;;;;;;;26.25;36.08;96782.06;5039829;28;20037;-82
2022/06/12 10:50:21;;;;;;;2.40;1.30;;;;;;;26.11;32.07;96782.19;5040823;28;20045;-81
2022/06/12 10:52:53;;;;;;;3.28;1.33;;;;;;;26.41;35.11;96781.53;5045028;28;20045;-82
2022/06/12 10:55:28;;;;;;;3.17;1.20;;;;;;;26.23;36.35;96772.50;5038976;28;20398;-80
2022/06/12 10:58:06;;;;;;;2.85;1.30;;;;;;;26.40;30.72;96773.56;5036516;28;20108;-80
2022/06/12 11:00:40;;;;;;;1.90;1.10;;;;;;;26.20;30.69;96765.75;5041636;28;20042;-81
2022/06/12 11:03:16;;;;;;;1.70;1.10;;;;;;;26.28;33.90;96770.06;5041323;28;20053;-81
2022/06/12 11:05:59;;;;;;;3.03;1.00;;;;;;;26.38;38.16;96767.63;5042688;28;20045;-82
2022/06/12 11:09:02;;;;;;;3.30;1.27;;;;;;;26.49;41.42;96757.16;5040302;28;20105;-82
2022/06/12 11:11:39;;;;;;;1.73;1.10;;;;;;;26.28;39.24;96753.31;5024143;28;20042;-81
2022/06/12 11:14:20;;;;;;;1.50;1.10;;;;;;;26.08;28.52;96755.06;5025968;28;20037;-80
2022/06/12 11:17:01;;;;;;;2.13;1.00;;;;;;;26.05;30.14;96744.75;5022159;28;20052;-81
2022/06/12 11:19:46;;;;;;;1.75;1.10;;;;;;;26.26;29.87;96741.78;5025225;28;20042;-82
2022/06/12 11:22:33;;;;;;;2.55;0.98;;;;;;;26.42;30.43;96737.69;5021326;28;20046;-81
2022/06/12 11:25:10;;;;;;;2.22;0.82;;;;;;;26.36;29.83;96728.13;5024065;28;20057;-81
2022/06/12 11:27:50;;;;;;;1.40;0.80;;;;;;;26.45;32.92;96732.06;5024762;28;20096;-81
2022/06/12 11:30:30;;;;;;;1.75;0.93;;;;;;;26.56;31.44;96739.53;5027162;28;20049;-82
2022/06/12 11:33:12;;;;;;;3.35;1.00;;;;;;;26.32;28.17;96730.19;5028605;28;20073;-81
2022/06/12 11:35:46;;;;;;;1.25;0.90;;;;;;;26.46;31.19;96730.06;5023967;28;20078;-80
2022/06/12 11:38:36;;;;;;;1.95;1.10;;;;;;;26.42;29.69;96726.53;5025534;28;20046;-81
2022/06/12 11:41:12;;;;;;;1.45;1.00;;;;;;;26.42;35.67;96720.94;5006074;28;20057;-80
2022/06/12 11:43:43;;;;;;;1.77;1.20;;;;;;;26.39;33.05;96721.72;5002372;28;20049;-82
2022/06/12 11:46:30;;;;;;;3.05;1.30;;;;;;;26.20;30.92;96726.66;5000962;28;20119;-81
2022/06/12 11:49:23;;;;;;;2.80;1.30;;;;;;;26.33;31.49;96712.22;5001764;28;20462;-81
2022/06/12 11:52:00;;;;;;;2.67;1.38;;;;;;;26.43;34.79;96711.34;4998788;28;20045;-82
2022/06/12 11:54:42;;;;;;;2.28;1.20;;;;;;;26.47;31.32;96707.31;4999471;28;20053;-82
2022/06/12 11:57:19;;;;;;;2.57;1.20;;;;;;;26.44;31.18;96710.13;5003994;28;20104;-81
2022/06/12 11:59:56;;;;;;;2.38;1.17;;;;;;;26.63;31.33;96709.56;4998008;28;20046;-82
2022/06/12 12:02:36;;;;;;;2.75;1.27;;;;;;;26.60;31.18;96706.78;5006875;28;20046;-81
2022/06/12 12:05:20;;;;;;;1.20;1.10;;;;;;;26.61;35.62;96700.78;5005751;28;20402;-80
2022/06/12 12:08:01;;;;;;;2.22;1.20;;;;;;;26.61;32.37;96700.78;5004723;28;20046;-83
2022/06/12 12:10:48;;;;;;;3.22;1.27;;;;;;;26.44;35.26;96685.00;5004708;28;20042;-80
2022/06/12 12:13:18;;;;;;;1.02;0.90;;;;;;;26.60;33.70;96693.63;5003466;28;20054;-80
2022/06/12 12:15:49;;;;;;;1.25;0.98;;;;;;;26.52;31.05;96697.72;4994411;28;20053;-83